This is the latest recevied weather packets stored in our database for station/object DG8SF-13. If no packets are shown the sender has not sent any weather packets the latest 10 day(s).
| Time | Temp. | Humidity | Pressure | Rain* | Wind** | Luminosity | Snow |
|---|---|---|---|---|---|---|---|
| 1787502881 | 23.89° C | 37% | 1021 hPa | 0 mm | - | - | - |
| 1787502547 | 23.33° C | 39% | 1021 hPa | 0 mm | - | - | - |
| 1787502209 | 24.44° C | 36% | 1021 hPa | 0 mm | - | - | - |
| 1787501897 | 24.44° C | 36% | 1021 hPa | 0 mm | - | - | - |
| 1787501585 | 23.89° C | 37% | 1021 hPa | 0 mm | - | - | - |
| 1787501273 | 24.44° C | 36% | 1021 hPa | 0 mm | - | - | - |
| 1787500960 | 24.44° C | 37% | 1021.1 hPa | 0 mm | - | - | - |
| 1787500649 | 25° C | 35% | 1021 hPa | 0 mm | - | - | - |
| 1787500336 | 24.44° C | 35% | 1021 hPa | 0 mm | - | - | - |
| 1787500025 | 24.44° C | 37% | 1020.8 hPa | 0 mm | - | - | - |
| 1787499712 | 23.33° C | 38% | 1020.9 hPa | 0 mm | - | - | - |
| 1787499400 | 23.89° C | 41% | 1020.9 hPa | 0 mm | - | - | - |
| 1787499091 | 23.89° C | 41% | 1021 hPa | 0 mm | - | - | - |
| 1787498780 | 23.33° C | 40% | 1021 hPa | 0 mm | - | - | - |
| 1787498454 | 23.89° C | 38% | 1021 hPa | 0 mm | - | - | - |
| 1787498140 | 24.44° C | 36% | 1021 hPa | 0 mm | - | - | - |
| 1787497828 | 25° C | 38% | 1020.9 hPa | 0 mm | - | - | - |
| 1787497517 | 25° C | 35% | 1020.9 hPa | 0 mm | - | - | - |
| 1787497207 | 23.33° C | 39% | 1020.9 hPa | 0 mm | - | - | - |
| 1787496893 | 22.22° C | 41% | 1020.9 hPa | 0 mm | - | - | - |
| 1787496582 | 22.78° C | 42% | 1020.9 hPa | 0 mm | - | - | - |
| 1787496269 | 22.22° C | 42% | 1020.9 hPa | 0 mm | - | - | - |
| 1787495958 | 23.33° C | 40% | 1020.9 hPa | 0 mm | - | - | - |
| 1787495644 | 23.89° C | 38% | 1021 hPa | 0 mm | - | - | - |
| 1787495334 | 25° C | 36% | 1020.8 hPa | 0 mm | - | - | - |
* Rain latest hour (hover to see other rain measurements)
** Current wind speed in m/s (hover to see current wind gust speed)